Norfolk, Virginia
Traffic Map
Current Weather Conditions
Norfolk, Virginia
Clear
Clear
28°
Feels Like: 29°
Wind Chill: 28° Ceiling: Unl
Heat Index: 29° Visibility: 10mi
Dew Point: 20° Wind: 12mph
Humidity: 62% Direction: 30° (NNE)
Pressure: 29.96in Gusts: 0mph
Raw Report DataKORF 201951Z AUTO 03010KT 10SM CLR 28/20 A2996 RMK AO2 SLP144 T02780200 TSNO
Traffic Incident Summary
Active as of:
Severity:
Category:
InformationThere was an issue retrieving the traffic information for this location. Please try a different location or try again shortly.
Advertisements
Track Severe Weather on mobile